GCDDG EGBJ-EGBP
Flight info
| Callsign | GCDDG |
|---|---|
| Flight time | 0h 28m |
| Altitude | 2000 |
| Route | VFR |
| Aircraft | C172/L-SFG/C |
Departure
| Time | 2026-04-26 16:15 |
|---|---|
| Airport | Gloucestershire Airport (EGBJ) |
Arrival
| Time | 2026-04-26 16:43 |
|---|---|
| Airport | Cotswold Airport (EGBP) |
| Time | Latitude | Longitude | Altitude | Speed | Heading |
|---|---|---|---|---|---|
| 2026-04-26 16:08 | 51.88984 | -2.16359 | 89 ft | 0 kts | 99° |
| 2026-04-26 16:13 | 51.88979 | -2.16350 | 89 ft | 3 kts | 157° |
| 2026-04-26 16:13 | 51.88961 | -2.16390 | 90 ft | 9 kts | 253° |
| 2026-04-26 16:13 | 51.88957 | -2.16480 | 88 ft | 8 kts | 290° |
| 2026-04-26 16:13 | 51.89002 | -2.16505 | 88 ft | 7 kts | 349° |
| 2026-04-26 16:14 | 51.89225 | -2.16544 | 90 ft | 57 kts | 354° |
| 2026-04-26 16:14 | 51.89746 | -2.16640 | 139 ft | 84 kts | 352° |
| 2026-04-26 16:14 | 51.90525 | -2.15425 | 454 ft | 95 kts | 98° |
| 2026-04-26 16:15 | 51.90302 | -2.14487 | 773 ft | 82 kts | 119° |
| 2026-04-26 16:15 | 51.90105 | -2.13663 | 1023 ft | 86 kts | 110° |
| 2026-04-26 16:15 | 51.90004 | -2.12787 | 1319 ft | 85 kts | 98° |
| 2026-04-26 16:16 | 51.90240 | -2.10915 | 1911 ft | 85 kts | 61° |
| 2026-04-26 16:16 | 51.90745 | -2.10159 | 2026 ft | 103 kts | 34° |
| 2026-04-26 16:16 | 51.91397 | -2.09625 | 2285 ft | 98 kts | 30° |
| 2026-04-26 16:16 | 51.92056 | -2.09244 | 2529 ft | 105 kts | 13° |
| 2026-04-26 16:17 | 51.92810 | -2.09226 | 2599 ft | 113 kts | 354° |
| 2026-04-26 16:21 | 51.93243 | -2.09366 | 2736 ft | 113 kts | 348° |
| 2026-04-26 16:22 | 51.93955 | -2.09157 | 3052 ft | 105 kts | 34° |
| 2026-04-26 16:22 | 51.94464 | -2.08341 | 3252 ft | 108 kts | 51° |
| 2026-04-26 16:22 | 51.95001 | -2.07383 | 3290 ft | 118 kts | 48° |
| 2026-04-26 16:22 | 51.95346 | -2.06256 | 3453 ft | 110 kts | 95° |
| 2026-04-26 16:23 | 51.94985 | -2.05264 | 3526 ft | 105 kts | 145° |
| 2026-04-26 16:23 | 51.94417 | -2.04626 | 3425 ft | 92 kts | 151° |
| 2026-04-26 16:23 | 51.93840 | -2.04132 | 3318 ft | 98 kts | 154° |
| 2026-04-26 16:23 | 51.93252 | -2.03527 | 3237 ft | 104 kts | 136° |
| 2026-04-26 16:24 | 51.92719 | -2.02707 | 3142 ft | 109 kts | 136° |
| 2026-04-26 16:24 | 51.92209 | -2.01827 | 3143 ft | 105 kts | 135° |
| 2026-04-26 16:24 | 51.91729 | -2.00975 | 3158 ft | 103 kts | 136° |
| 2026-04-26 16:24 | 51.91272 | -2.00096 | 3247 ft | 98 kts | 124° |
| 2026-04-26 16:25 | 51.90913 | -1.99129 | 3311 ft | 96 kts | 118° |
| 2026-04-26 16:25 | 51.90695 | -1.98058 | 3227 ft | 112 kts | 108° |
| 2026-04-26 16:25 | 51.90534 | -1.96884 | 3178 ft | 115 kts | 108° |
| 2026-04-26 16:25 | 51.90205 | -1.95734 | 3200 ft | 108 kts | 123° |
| 2026-04-26 16:26 | 51.89835 | -1.94705 | 3208 ft | 107 kts | 122° |
| 2026-04-26 16:26 | 51.89465 | -1.93683 | 3279 ft | 107 kts | 124° |
| 2026-04-26 16:26 | 51.89077 | -1.92680 | 3277 ft | 106 kts | 122° |
| 2026-04-26 16:26 | 51.88728 | -1.91618 | 3285 ft | 106 kts | 123° |
| 2026-04-26 16:27 | 51.88301 | -1.90713 | 3281 ft | 101 kts | 131° |
| 2026-04-26 16:27 | 51.87858 | -1.89875 | 3270 ft | 98 kts | 133° |
| 2026-04-26 16:27 | 51.87230 | -1.89529 | 3173 ft | 100 kts | 181° |
| 2026-04-26 16:27 | 51.86575 | -1.89513 | 3218 ft | 97 kts | 178° |
| 2026-04-26 16:28 | 51.85903 | -1.89477 | 3168 ft | 98 kts | 180° |
| 2026-04-26 16:28 | 51.85272 | -1.89788 | 3186 ft | 93 kts | 204° |
| 2026-04-26 16:28 | 51.84664 | -1.89890 | 3180 ft | 94 kts | 140° |
| 2026-04-26 16:28 | 51.84284 | -1.89040 | 3148 ft | 96 kts | 128° |
| 2026-04-26 16:29 | 51.83892 | -1.88179 | 3215 ft | 90 kts | 131° |
| 2026-04-26 16:29 | 51.83461 | -1.87433 | 3273 ft | 89 kts | 141° |
| 2026-04-26 16:29 | 51.82967 | -1.86796 | 3228 ft | 90 kts | 154° |
| 2026-04-26 16:29 | 51.82388 | -1.86420 | 3211 ft | 93 kts | 157° |
| 2026-04-26 16:30 | 51.81796 | -1.85965 | 3236 ft | 92 kts | 154° |
| 2026-04-26 16:30 | 51.81197 | -1.85493 | 3216 ft | 95 kts | 155° |
| 2026-04-26 16:30 | 51.80604 | -1.85014 | 3214 ft | 96 kts | 155° |
| 2026-04-26 16:30 | 51.80033 | -1.84529 | 3243 ft | 93 kts | 151° |
| 2026-04-26 16:31 | 51.79462 | -1.84089 | 3297 ft | 88 kts | 163° |
| 2026-04-26 16:31 | 51.78878 | -1.83782 | 3303 ft | 89 kts | 163° |
| 2026-04-26 16:31 | 51.78306 | -1.83434 | 3328 ft | 88 kts | 157° |
| 2026-04-26 16:31 | 51.77733 | -1.82974 | 3384 ft | 94 kts | 151° |
| 2026-04-26 16:32 | 51.77133 | -1.82380 | 3206 ft | 108 kts | 149° |
| 2026-04-26 16:32 | 51.76712 | -1.81941 | 3168 ft | 105 kts | 148° |
| 2026-04-26 16:32 | 51.75924 | -1.81065 | 3070 ft | 100 kts | 143° |
| 2026-04-26 16:33 | 51.74716 | -1.78760 | 3356 ft | 109 kts | 118° |
| 2026-04-26 16:33 | 51.74488 | -1.77609 | 3534 ft | 109 kts | 97° |
| 2026-04-26 16:33 | 51.74711 | -1.76430 | 3599 ft | 117 kts | 63° |
| 2026-04-26 16:34 | 51.75104 | -1.75215 | 3617 ft | 123 kts | 62° |
| 2026-04-26 16:34 | 51.75598 | -1.74112 | 3761 ft | 119 kts | 44° |
| 2026-04-26 16:34 | 51.76295 | -1.73585 | 3667 ft | 110 kts | 13° |
| 2026-04-26 16:34 | 51.77029 | -1.73618 | 3407 ft | 108 kts | 338° |
| 2026-04-26 16:35 | 51.77599 | -1.74307 | 3179 ft | 104 kts | 309° |
| 2026-04-26 16:35 | 51.77731 | -1.75408 | 2957 ft | 98 kts | 258° |
| 2026-04-26 16:35 | 51.77608 | -1.76441 | 2816 ft | 89 kts | 259° |
| 2026-04-26 16:35 | 51.77510 | -1.77407 | 2655 ft | 88 kts | 260° |
| 2026-04-26 16:36 | 51.77431 | -1.78442 | 2516 ft | 94 kts | 259° |
| 2026-04-26 16:36 | 51.77318 | -1.79498 | 2407 ft | 101 kts | 261° |
| 2026-04-26 16:36 | 51.77047 | -1.80520 | 2314 ft | 100 kts | 237° |
| 2026-04-26 16:36 | 51.76720 | -1.81477 | 2281 ft | 98 kts | 241° |
| 2026-04-26 16:37 | 51.76429 | -1.82521 | 2126 ft | 105 kts | 249° |
| 2026-04-26 16:37 | 51.76169 | -1.83607 | 2155 ft | 107 kts | 246° |
| 2026-04-26 16:37 | 51.75833 | -1.84694 | 2236 ft | 113 kts | 241° |
| 2026-04-26 16:37 | 51.75443 | -1.85801 | 2324 ft | 117 kts | 238° |
| 2026-04-26 16:38 | 51.74988 | -1.86829 | 2489 ft | 114 kts | 234° |
| 2026-04-26 16:38 | 51.74517 | -1.87879 | 2623 ft | 114 kts | 232° |
| 2026-04-26 16:38 | 51.74027 | -1.88964 | 2563 ft | 121 kts | 239° |
| 2026-04-26 16:38 | 51.73653 | -1.90210 | 2461 ft | 120 kts | 246° |
| 2026-04-26 16:39 | 51.73363 | -1.91433 | 2324 ft | 108 kts | 251° |
| 2026-04-26 16:39 | 51.73142 | -1.92542 | 2175 ft | 110 kts | 252° |
| 2026-04-26 16:39 | 51.72554 | -1.93184 | 1879 ft | 110 kts | 182° |
| 2026-04-26 16:39 | 51.71839 | -1.93178 | 1704 ft | 101 kts | 183° |
| 2026-04-26 16:40 | 51.71173 | -1.93355 | 1523 ft | 95 kts | 200° |
| 2026-04-26 16:40 | 51.70593 | -1.93889 | 1285 ft | 97 kts | 223° |
| 2026-04-26 16:40 | 51.70136 | -1.94688 | 1180 ft | 98 kts | 232° |
| 2026-04-26 16:40 | 51.69671 | -1.95521 | 1146 ft | 101 kts | 216° |
| 2026-04-26 16:41 | 51.69112 | -1.96221 | 986 ft | 103 kts | 224° |
| 2026-04-26 16:41 | 51.68691 | -1.97123 | 932 ft | 103 kts | 237° |
| 2026-04-26 16:41 | 51.68280 | -1.98026 | 878 ft | 100 kts | 227° |
| 2026-04-26 16:41 | 51.67834 | -1.98847 | 870 ft | 97 kts | 227° |
| 2026-04-26 16:42 | 51.67418 | -1.99671 | 845 ft | 96 kts | 242° |
| 2026-04-26 16:42 | 51.67319 | -2.00673 | 774 ft | 86 kts | 261° |
| 2026-04-26 16:42 | 51.67254 | -2.01513 | 697 ft | 69 kts | 256° |
| 2026-04-26 16:42 | 51.67145 | -2.02266 | 697 ft | 71 kts | 255° |
| 2026-04-26 16:43 | 51.67071 | -2.03067 | 656 ft | 76 kts | 258° |
| 2026-04-26 16:43 | 51.66986 | -2.03947 | 537 ft | 82 kts | 258° |
| 2026-04-26 16:43 | 51.66906 | -2.04792 | 433 ft | 67 kts | 257° |
| 2026-04-26 16:43 | 51.66838 | -2.05388 | 424 ft | 33 kts | 254° |
| 2026-04-26 16:44 | 51.66800 | -2.05692 | 423 ft | 24 kts | 264° |
| 2026-04-26 16:44 | 51.66785 | -2.05930 | 432 ft | 17 kts | 282° |
| 2026-04-26 16:44 | 51.66830 | -2.06051 | 434 ft | 12 kts | 303° |
| 2026-04-26 16:44 | 51.66879 | -2.06080 | 436 ft | 6 kts | 30° |
| 2026-04-26 16:45 | 51.66909 | -2.06084 | 436 ft | 5 kts | 306° |
| 2026-04-26 16:45 | 51.66931 | -2.06123 | 436 ft | 4 kts | 312° |
| 2026-04-26 16:45 | 51.66949 | -2.06157 | 436 ft | 4 kts | 319° |
| 2026-04-26 16:45 | 51.66966 | -2.06167 | 431 ft | 0 kts | 358° |